createdAt,value
2022-08-09T00:04:37.553Z,20.83
2022-08-09T00:09:40.220Z,20.8
2022-08-09T00:14:43.070Z,20.84
2022-08-09T00:19:47.925Z,20.82
2022-08-09T00:30:10.503Z,20.82
2022-08-09T00:34:56.444Z,20.83
2022-08-09T00:40:02.051Z,20.79
2022-08-09T00:45:15.751Z,20.81
2022-08-09T00:50:06.908Z,20.85
2022-08-09T00:55:10.351Z,20.82
2022-08-09T01:00:20.886Z,20.84
2022-08-09T01:05:54.767Z,20.77
2022-08-09T01:10:57.119Z,20.74
2022-08-09T01:15:59.826Z,20.73
2022-08-09T01:21:02.272Z,20.69
2022-08-09T01:26:05.052Z,20.67
2022-08-09T01:31:07.714Z,20.6
2022-08-09T01:36:10.616Z,20.52
2022-08-09T01:41:13.238Z,20.48
2022-08-09T01:46:18.304Z,20.46
2022-08-09T01:51:26.067Z,20.42
2022-08-09T01:56:27.239Z,20.39
2022-08-09T02:01:30.707Z,20.39
2022-08-09T02:06:38.378Z,20.39
2022-08-09T02:11:42.761Z,20.37
2022-08-09T02:16:53.529Z,20.37
2022-08-09T02:21:46.220Z,20.36
2022-08-09T02:31:51.873Z,20.38
2022-08-09T02:36:54.665Z,20.36
2022-08-09T02:41:57.380Z,20.35
2022-08-09T02:47:00.059Z,20.23
2022-08-09T02:52:03.658Z,20.14
2022-08-09T03:02:09.844Z,20.13
2022-08-09T03:17:20.373Z,20.14
2022-08-09T03:22:19.857Z,20.11
2022-08-09T03:27:22.252Z,20.07
2022-08-09T03:32:24.540Z,20.09
2022-08-09T03:37:55.066Z,20
2022-08-09T03:47:32.464Z,20.02
2022-08-09T03:52:35.166Z,20.03
2022-08-09T03:57:44.566Z,20.03
2022-08-09T04:02:40.722Z,20.04
2022-08-09T04:07:47.983Z,20.02
2022-08-09T04:12:46.492Z,19.95
2022-08-09T04:17:48.940Z,20
2022-08-09T04:22:51.912Z,20.01
2022-08-09T04:27:54.631Z,19.99
2022-08-09T04:32:57.342Z,19.99
2022-08-09T04:43:03.882Z,20.15
2022-08-09T04:48:09.527Z,20.16
2022-08-09T04:53:11.799Z,20.17
2022-08-09T05:03:30.885Z,20.29
2022-08-09T05:08:20.295Z,20.29
2022-08-09T05:13:22.823Z,20.16
2022-08-09T05:18:40.129Z,20.27
2022-08-09T05:28:30.883Z,20.55
2022-08-09T05:33:33.746Z,20.31
2022-08-09T05:38:39.030Z,20.29
2022-08-09T05:43:40.710Z,20.36
2022-08-09T05:48:42.179Z,20.48
2022-08-09T05:53:51.769Z,20.59
2022-08-09T05:58:47.606Z,20.65
2022-08-09T06:08:52.991Z,21.01
2022-08-09T06:13:55.625Z,21.16
2022-08-09T06:18:58.540Z,21.48
2022-08-09T06:24:02.433Z,21.69
2022-08-09T06:29:04.867Z,21.97
2022-08-09T06:34:06.511Z,21.81
2022-08-09T06:39:11.504Z,21.75
2022-08-09T06:44:11.974Z,22.06
2022-08-09T06:49:16.085Z,22.01
2022-08-09T06:54:17.307Z,22.18
2022-08-09T07:00:53.475Z,22.32
2022-08-09T07:04:22.951Z,22.36
2022-08-09T07:09:53.960Z,22.41
2022-08-09T07:14:28.276Z,22.64
2022-08-09T07:19:30.931Z,22.94
2022-08-09T07:29:42.625Z,23.14
2022-08-09T07:34:42.228Z,23.77
2022-08-09T07:39:45.198Z,23.38
2022-08-09T07:44:51.388Z,23.23
2022-08-09T07:50:05.665Z,23.25
2022-08-09T07:54:56.184Z,23.2
2022-08-09T08:00:03.315Z,23.15
2022-08-09T08:05:01.590Z,23.47
2022-08-09T08:15:07.458Z,23.64
2022-08-09T08:20:12.501Z,24
2022-08-09T08:25:13.389Z,24.17
2022-08-09T08:30:14.976Z,24.17
2022-08-09T08:35:18.977Z,24.24
2022-08-09T08:40:21.601Z,24.41
2022-08-09T08:45:32.815Z,24.49
2022-08-09T08:50:30.330Z,24.72
2022-08-09T08:55:32.851Z,24.98
2022-08-09T09:00:35.801Z,25.07
2022-08-09T09:05:57.739Z,24.68
2022-08-09T09:10:41.214Z,24.88
2022-08-09T09:15:43.729Z,25.07
2022-08-09T09:20:49.551Z,25.23
2022-08-09T09:26:02.748Z,25.36
2022-08-09T09:36:01.250Z,26.35
2022-08-09T09:41:00.893Z,25.71
2022-08-09T09:56:09.256Z,26.41
2022-08-09T10:11:54.072Z,26.69
2022-08-09T10:16:56.475Z,28.24
2022-08-09T10:21:25.833Z,28.34
2022-08-09T10:26:28.577Z,28.1
2022-08-09T10:36:33.441Z,29.71
2022-08-09T10:41:36.333Z,30.9
2022-08-09T10:46:52.510Z,29.65
2022-08-09T10:51:41.739Z,29.78
2022-08-09T10:56:44.459Z,29.04
2022-08-09T11:03:03.417Z,28.51
2022-08-09T11:06:49.652Z,27.46
2022-08-09T11:11:52.438Z,28.34
2022-08-09T11:16:55.354Z,29.11
2022-08-09T11:22:05.681Z,28.59
2022-08-09T11:27:03.671Z,29.22
2022-08-09T11:32:03.898Z,29.01
2022-08-09T11:37:07.113Z,29.28
2022-08-09T11:47:14.482Z,29.31
2022-08-09T11:52:49.870Z,27.5
2022-08-09T11:57:18.030Z,28.12
2022-08-09T12:12:28.946Z,29.21
2022-08-09T12:17:34.948Z,29.4
2022-08-09T12:22:32.850Z,29.6
2022-08-09T12:29:01.140Z,29.23
2022-08-09T12:32:40.629Z,28.46
2022-08-09T12:37:44.371Z,28.5
2022-08-09T12:42:43.073Z,28.99
2022-08-09T12:53:09.786Z,28.89
2022-08-09T13:02:54.184Z,27.69
2022-08-09T13:07:56.552Z,27.79
2022-08-09T13:12:59.069Z,27.76
2022-08-09T13:23:05.918Z,27.14
2022-08-09T13:28:07.285Z,27.03
2022-08-09T13:33:11.787Z,27.11
2022-08-09T13:38:17.848Z,27.11
2022-08-09T13:43:16.225Z,27.11
2022-08-09T13:48:18.345Z,27.46
2022-08-09T13:53:21.117Z,27.43
2022-08-09T13:58:23.810Z,27.26
2022-08-09T14:04:00.935Z,27.32
2022-08-09T14:08:28.824Z,27.77
2022-08-09T14:14:16.870Z,27.6
2022-08-09T14:18:34.521Z,27.95
2022-08-09T14:23:41.054Z,27.8
2022-08-09T14:28:43.034Z,28.07
2022-08-09T14:43:53.509Z,28.15
2022-08-09T14:48:53.820Z,27.97
2022-08-09T14:53:56.453Z,28.03
2022-08-09T14:58:59.307Z,28.22
2022-08-09T15:04:01.783Z,28.43
2022-08-09T15:09:04.425Z,28.57
2022-08-09T15:14:13.232Z,28.39
2022-08-09T15:19:16.273Z,28.58
2022-08-09T15:24:12.640Z,28.41
2022-08-09T15:39:20.726Z,28.22
2022-08-09T15:49:26.134Z,28.37
2022-08-09T15:59:36.886Z,28.75
2022-08-09T16:04:34.117Z,28.28
2022-08-09T16:09:51.674Z,28.07
2022-08-09T16:14:39.238Z,27.75
2022-08-09T16:19:49.135Z,27.5
2022-08-09T16:24:44.441Z,27.1
2022-08-09T16:29:50.139Z,26.91
2022-08-09T16:39:54.874Z,26.87
2022-08-09T16:44:55.220Z,26.7
2022-08-09T16:50:30.905Z,26.62
2022-08-09T16:55:00.623Z,26.58
2022-08-09T17:06:03.034Z,26.46
2022-08-09T17:10:44.133Z,26.35
2022-08-09T17:15:59.566Z,26.23
2022-08-09T17:25:52.753Z,26.1
2022-08-09T17:35:56.577Z,25.96
2022-08-09T17:40:59.158Z,25.9
2022-08-09T17:46:06.510Z,25.87
2022-08-09T17:56:08.252Z,25.74
2022-08-09T18:01:10.106Z,25.7
2022-08-09T18:06:14.999Z,25.65
2022-08-09T18:16:28.746Z,25.43
2022-08-09T18:21:23.343Z,25.28
2022-08-09T18:31:32.385Z,25.02
2022-08-09T18:36:32.301Z,24.9
2022-08-09T18:46:45.475Z,24.71
2022-08-09T18:51:37.937Z,24.64
2022-08-09T19:01:43.440Z,24.4
2022-08-09T19:12:14.765Z,24.26
2022-08-09T19:17:17.256Z,24.17
2022-08-09T19:27:22.368Z,23.97
2022-08-09T19:32:26.553Z,23.9
2022-08-09T19:47:33.049Z,23.62
2022-08-09T19:52:36.169Z,23.54
2022-08-09T20:04:07.900Z,23.35
2022-08-09T20:07:57.365Z,23.25
2022-08-09T20:12:49.745Z,23.16
2022-08-09T20:17:54.822Z,23.09
2022-08-09T20:22:56.254Z,22.96
2022-08-09T20:27:57.585Z,22.85
2022-08-09T20:33:00.164Z,22.73
2022-08-09T20:38:19.276Z,22.59
2022-08-09T20:43:12.462Z,22.52
2022-08-09T20:53:38.890Z,22.32
2022-08-09T20:58:43.301Z,22.24
2022-08-09T21:04:08.666Z,22.18
2022-08-09T21:13:58.121Z,21.96
2022-08-09T21:19:01.649Z,21.93
2022-08-09T21:23:55.552Z,21.85
2022-08-09T21:28:57.189Z,21.83
2022-08-09T21:33:59.399Z,21.73
2022-08-09T21:39:01.861Z,21.65
2022-08-09T21:44:04.457Z,21.55
2022-08-09T21:49:07.419Z,21.48
2022-08-09T21:54:09.691Z,21.41
2022-08-09T21:59:16.248Z,21.34
2022-08-09T22:04:17.759Z,21.24
2022-08-09T22:14:22.823Z,21.1
2022-08-09T22:19:57.720Z,21.03
2022-08-09T22:24:31.164Z,20.9
2022-08-09T22:34:40.417Z,20.79
2022-08-09T22:39:47.352Z,20.72
2022-08-09T22:44:44.943Z,20.68
2022-08-09T22:49:44.163Z,20.62
2022-08-09T22:54:47.001Z,20.58
2022-08-09T23:14:57.440Z,20.27
2022-08-09T23:25:05.569Z,20.12
2022-08-09T23:30:08.276Z,20.03
2022-08-09T23:35:10.895Z,20
2022-08-09T23:40:13.525Z,19.92
2022-08-09T23:45:36.758Z,19.83
2022-08-09T23:55:22.007Z,19.69
